Terminal Aerodrome Forecast
Issued by NWS Omaha/Valley, NE

Home | Current Version | Previous Version | Graphics & Text | Print | Product List | Glossary On
Versions: 1 2 3 4 5 6 7 8 9 10 11 12 13 14 15 16 17 18 19 20 21 22 23
000
FTUS43 KOAX 232047 AAA
TAFOFK
TAF AMD
KOFK 232047Z 2321/2418 19011KT P6SM SKC
     FM232300 18005KT P6SM SCT250
     FM240700 21007KT 5SM BR FEW010 SCT250
      TEMPO 2409/2413 1SM BR BKN007
     FM241400 26006KT P6SM SCT250=

USA.gov is the U.S. government's official web portal to all federal, state and local government web resources and services.